Time;durP1;ratioP1;P1;durP2;ratioP2;P2;SDS_P1;SDS_P2;PMS_P1;PMS_P2;Temp;Humidity;BMP_temperature;BMP_pressure;BME280_temperature;BME280_humidity;BME280_pressure;Samples;Min_cycle;Max_cycle;Signal;HPM_P1;HPM_P2
2023/06/04 00:02:24;;;;;;;2.90;1.20;;;;;;;13.88;54.84;102062.16;4943299;29;20031;-63
2023/06/04 00:04:49;;;;;;;2.55;1.00;;;;;;;13.84;54.81;102059.41;4945229;29;20039;-62
2023/06/04 00:07:14;;;;;;;2.50;1.13;;;;;;;13.81;55.96;102054.97;4942740;29;20474;-62
2023/06/04 00:09:40;;;;;;;2.17;1.00;;;;;;;13.76;52.58;102056.56;4939788;28;20042;-62
2023/06/04 00:12:05;;;;;;;1.88;1.10;;;;;;;13.77;54.76;102052.22;4941895;28;20023;-62
2023/06/04 00:14:31;;;;;;;2.35;1.30;;;;;;;13.76;56.14;102050.44;4941737;29;20356;-62
2023/06/04 00:16:56;;;;;;;2.95;1.17;;;;;;;13.76;55.95;102045.19;4943026;28;20041;-62
2023/06/04 00:19:22;;;;;;;3.03;1.30;;;;;;;13.66;56.75;102039.69;4938336;29;20042;-62
2023/06/04 00:21:47;;;;;;;2.92;1.30;;;;;;;13.64;57.52;102045.72;4939239;29;20073;-62
2023/06/04 00:24:12;;;;;;;3.85;1.63;;;;;;;13.63;57.50;102041.31;4938828;28;20043;-62
2023/06/04 00:26:38;;;;;;;4.85;2.28;;;;;;;13.57;56.75;102057.75;4939778;29;20037;-62
2023/06/04 00:29:03;;;;;;;4.25;2.90;;;;;;;13.59;57.37;102058.69;4942335;29;20023;-62
2023/06/04 00:31:29;;;;;;;4.72;2.83;;;;;;;13.56;57.64;102054.22;4940369;28;20027;-63
2023/06/04 00:33:54;;;;;;;6.85;3.00;;;;;;;13.55;58.17;102051.56;4941336;29;20034;-62
2023/06/04 00:36:20;;;;;;;6.32;2.60;;;;;;;13.52;57.32;102052.34;4943934;29;20259;-63
2023/06/04 00:38:46;;;;;;;4.57;2.25;;;;;;;13.49;57.73;102052.25;4942541;29;20530;-62
2023/06/04 00:41:11;;;;;;;3.95;2.30;;;;;;;13.44;58.35;102052.94;4940823;28;20090;-62
2023/06/04 00:43:36;;;;;;;3.28;1.75;;;;;;;13.37;58.69;102047.53;4943037;29;20035;-62
2023/06/04 00:46:05;;;;;;;3.17;1.60;;;;;;;13.35;59.17;102049.22;4937745;29;20518;-63
2023/06/04 00:48:30;;;;;;;2.78;1.60;;;;;;;13.30;59.09;102047.28;4941123;28;20031;-63
2023/06/04 00:50:57;;;;;;;3.85;1.60;;;;;;;13.21;56.39;102042.63;4938079;29;20023;-62
2023/06/04 00:53:24;;;;;;;2.95;1.65;;;;;;;13.19;58.87;102039.97;4937747;29;20504;-62
2023/06/04 00:55:50;;;;;;;2.35;1.50;;;;;;;13.21;59.90;102043.50;4941389;29;20475;-62
2023/06/04 00:58:15;;;;;;;5.40;1.63;;;;;;;13.19;58.32;102046.91;4938442;29;20023;-62
2023/06/04 01:00:42;;;;;;;2.55;1.45;;;;;;;13.17;58.38;102038.13;4940360;29;20031;-62
2023/06/04 01:03:14;;;;;;;3.13;1.30;;;;;;;13.20;59.77;102046.09;4944378;29;20400;-62
2023/06/04 01:05:49;;;;;;;2.72;1.10;;;;;;;13.12;59.83;102051.06;4942948;29;20094;-61
2023/06/04 01:08:15;;;;;;;2.05;1.20;;;;;;;13.12;60.37;102047.56;4944195;28;20066;-62
2023/06/04 01:10:54;;;;;;;2.20;1.17;;;;;;;13.16;59.57;102044.19;4945451;28;20501;-63
2023/06/04 01:13:19;;;;;;;1.90;1.10;;;;;;;13.14;59.58;102044.16;4947873;29;20031;-62
2023/06/04 01:15:45;;;;;;;3.08;1.10;;;;;;;13.13;58.94;102051.94;4948427;28;20077;-62
2023/06/04 01:18:27;;;;;;;1.67;1.00;;;;;;;13.12;60.08;102061.53;4945166;29;20027;-62
2023/06/04 01:20:55;;;;;;;1.30;0.80;;;;;;;13.12;60.17;102050.16;4930575;29;20041;-62
2023/06/04 01:23:34;;;;;;;2.10;1.20;;;;;;;13.10;60.17;102067.56;4947146;29;20043;-62
2023/06/04 01:26:04;;;;;;;1.63;1.00;;;;;;;13.08;60.22;102061.38;4948489;29;20082;-62
2023/06/04 01:28:34;;;;;;;2.22;1.08;;;;;;;13.01;61.00;102055.06;4945827;29;20035;-56
2023/06/04 01:31:01;;;;;;;2.10;1.00;;;;;;;12.98;60.77;102053.22;4928807;29;20063;-57
2023/06/04 01:33:27;;;;;;;1.55;0.90;;;;;;;12.94;61.54;102063.53;4946189;29;20074;-57
2023/06/04 01:35:53;;;;;;;1.77;1.00;;;;;;;12.90;58.98;102059.03;4943085;29;20027;-57
2023/06/04 01:38:18;;;;;;;1.77;1.10;;;;;;;12.91;61.61;102059.09;4945369;29;20034;-57
2023/06/04 01:40:43;;;;;;;2.55;1.00;;;;;;;12.90;61.67;102057.31;4943663;29;20047;-56
2023/06/04 01:43:09;;;;;;;2.92;1.15;;;;;;;12.91;61.89;102056.47;4926028;29;20546;-57
2023/06/04 01:45:35;;;;;;;2.03;1.10;;;;;;;12.90;61.44;102059.03;4943521;29;20554;-57
2023/06/04 01:48:04;;;;;;;2.35;1.00;;;;;;;12.82;61.49;102057.06;4946706;28;20077;-57
2023/06/04 01:50:30;;;;;;;2.17;1.15;;;;;;;12.81;61.71;102055.28;4940594;29;20036;-56
2023/06/04 01:52:56;;;;;;;1.88;1.00;;;;;;;12.83;61.86;102047.47;4944770;29;21257;-57
2023/06/04 01:55:22;;;;;;;2.38;1.00;;;;;;;12.81;61.83;102049.16;4944919;28;20419;-57
2023/06/04 01:57:47;;;;;;;2.40;1.30;;;;;;;12.78;61.63;102056.91;4943107;29;20035;-57
2023/06/04 02:00:14;;;;;;;1.50;1.00;;;;;;;12.72;61.81;102057.59;4941970;28;20154;-56
2023/06/04 02:02:43;;;;;;;1.50;1.00;;;;;;;12.64;61.98;102054.72;4945656;29;20039;-57
2023/06/04 02:05:09;;;;;;;;;;;;;;;12.68;59.94;102048.72;4947618;28;20035;-56
2023/06/04 02:07:39;;;;;;;2.08;1.00;;;;;;;12.59;61.66;102055.38;4947620;28;19914;-57
2023/06/04 02:10:22;;;;;;;2.38;1.08;;;;;;;12.53;62.08;102048.22;4945579;29;20028;-57
2023/06/04 02:12:59;;;;;;;1.92;0.98;;;;;;;12.46;61.92;102041.00;4946286;28;20237;-57
2023/06/04 02:15:26;;;;;;;2.10;1.10;;;;;;;12.42;62.60;102044.34;4944683;29;20034;-57
2023/06/04 02:17:58;;;;;;;2.05;1.08;;;;;;;12.41;63.56;102047.78;4946441;29;20538;-62
2023/06/04 02:20:25;;;;;;;1.80;1.00;;;;;;;12.38;63.73;102040.69;4945236;29;20031;-62
2023/06/04 02:22:50;;;;;;;1.42;0.93;;;;;;;12.33;63.80;102047.50;4944546;28;20086;-62
2023/06/04 02:25:16;;;;;;;2.35;0.98;;;;;;;12.30;63.88;102040.44;4947417;29;20575;-63
2023/06/04 02:27:41;;;;;;;2.00;0.90;;;;;;;12.26;63.56;102038.56;4938189;29;20031;-62
2023/06/04 02:30:07;;;;;;;2.30;0.98;;;;;;;12.15;61.69;102051.25;4943616;28;20020;-62
2023/06/04 02:32:35;;;;;;;1.52;0.90;;;;;;;12.12;64.03;102045.91;4943142;29;20479;-62
2023/06/04 02:35:01;;;;;;;1.90;1.00;;;;;;;12.13;64.75;102049.41;4944681;28;20526;-62
2023/06/04 02:37:26;;;;;;;1.88;0.95;;;;;;;12.12;64.51;102051.13;4944543;29;20039;-62
2023/06/04 02:39:51;;;;;;;2.42;0.90;;;;;;;12.12;64.70;102045.91;4939843;29;20699;-62
2023/06/04 02:42:17;;;;;;;1.80;0.90;;;;;;;12.14;64.55;102053.81;4927988;29;20043;-61
2023/06/04 02:44:42;;;;;;;2.58;1.00;;;;;;;12.13;64.78;102046.78;4924011;29;20115;-62
2023/06/04 02:47:07;;;;;;;1.92;1.10;;;;;;;11.99;65.24;102055.00;4945090;29;20078;-62
2023/06/04 02:49:33;;;;;;;2.00;1.00;;;;;;;11.97;65.61;102056.66;4943984;29;20038;-61
2023/06/04 02:51:58;;;;;;;1.38;1.00;;;;;;;11.94;65.39;102056.53;4943474;29;20475;-62
2023/06/04 02:54:24;;;;;;;1.30;0.90;;;;;;;11.93;65.16;102054.75;4941903;29;20042;-62
2023/06/04 02:56:49;;;;;;;1.48;1.00;;;;;;;11.93;65.35;102059.06;4940774;29;20028;-62
2023/06/04 02:59:15;;;;;;;2.33;1.08;;;;;;;11.85;65.26;102056.19;4945639;28;20498;-62
2023/06/04 03:01:40;;;;;;;1.92;0.90;;;;;;;11.80;65.25;102055.09;4943448;29;20103;-62
2023/06/04 03:04:09;;;;;;;1.20;0.90;;;;;;;11.78;65.30;102052.44;4945284;29;20038;-62
2023/06/04 03:06:38;;;;;;;1.98;1.00;;;;;;;11.77;65.83;102057.59;4923824;29;20514;-61
2023/06/04 03:09:03;;;;;;;1.52;0.80;;;;;;;11.72;65.83;102054.81;4943918;28;20598;-62
2023/06/04 03:11:29;;;;;;;1.73;1.00;;;;;;;11.69;66.22;102048.56;4941413;29;20048;-62
2023/06/04 03:13:54;;;;;;;1.92;1.05;;;;;;;11.64;66.33;102056.22;4941663;29;20096;-62
2023/06/04 03:16:20;;;;;;;1.98;1.20;;;;;;;11.59;66.38;102058.69;4944504;29;20040;-62
2023/06/04 03:18:46;;;;;;;1.85;0.90;;;;;;;11.57;66.93;102059.44;4942167;29;20087;-62
2023/06/04 03:21:11;;;;;;;2.55;1.10;;;;;;;11.50;67.13;102058.31;4944027;29;20054;-62
2023/06/04 03:23:36;;;;;;;1.52;0.90;;;;;;;11.42;66.89;102051.91;4942680;29;20395;-62
2023/06/04 03:26:02;;;;;;;1.75;1.00;;;;;;;11.40;67.51;102053.56;4943721;29;20402;-62
2023/06/04 03:28:28;;;;;;;1.23;0.85;;;;;;;11.34;67.83;102050.69;4942422;29;20039;-61
2023/06/04 03:30:53;;;;;;;1.50;1.00;;;;;;;11.33;67.94;102043.72;4942769;29;20032;-62
2023/06/04 03:33:19;;;;;;;2.83;1.10;;;;;;;11.29;67.48;102048.78;4940663;28;20058;-62
2023/06/04 03:35:45;;;;;;;2.25;1.20;;;;;;;11.27;67.63;102049.59;4942026;29;20031;-62
2023/06/04 03:38:11;;;;;;;2.47;1.10;;;;;;;11.26;67.71;102053.88;4941619;29;20131;-63
2023/06/04 03:40:36;;;;;;;2.03;1.10;;;;;;;11.23;67.87;102053.78;4944666;29;20055;-62
2023/06/04 03:43:03;;;;;;;1.95;1.00;;;;;;;11.22;67.66;102051.09;4942960;29;20490;-62
2023/06/04 03:45:29;;;;;;;1.90;1.00;;;;;;;11.23;67.51;102052.91;4936208;29;20163;-62
2023/06/04 03:47:54;;;;;;;2.08;1.10;;;;;;;11.21;68.25;102054.53;4941437;29;20119;-62
2023/06/04 03:50:20;;;;;;;2.85;1.20;;;;;;;11.19;67.87;102057.06;4924956;29;20023;-62
2023/06/04 03:52:45;;;;;;;2.08;1.05;;;;;;;11.19;68.00;102064.03;4943282;28;20126;-63
2023/06/04 03:55:11;;;;;;;2.20;1.20;;;;;;;11.16;68.11;102058.69;4943549;29;20031;-62
2023/06/04 03:57:38;;;;;;;1.85;1.05;;;;;;;11.13;68.35;102057.72;4938006;29;20031;-62
2023/06/04 04:00:08;;;;;;;1.67;1.10;;;;;;;11.14;68.80;102058.63;4941777;29;20519;-61
2023/06/04 04:02:33;;;;;;;2.00;1.05;;;;;;;11.16;68.60;102058.69;4943906;29;20176;-62
2023/06/04 04:04:59;;;;;;;2.50;1.10;;;;;;;11.15;68.63;102063.00;4942319;29;20571;-62
2023/06/04 04:07:25;;;;;;;2.30;1.05;;;;;;;11.13;69.13;102062.06;4939792;29;20109;-62
2023/06/04 04:09:51;;;;;;;1.67;1.10;;;;;;;11.13;68.50;102057.72;4938136;29;20665;-62
2023/06/04 04:12:17;;;;;;;2.15;1.20;;;;;;;11.12;69.06;102055.03;4939525;28;20239;-62
2023/06/04 04:14:42;;;;;;;2.00;1.13;;;;;;;11.12;68.98;102052.44;4941905;29;20463;-62
2023/06/04 04:17:08;;;;;;;2.85;1.27;;;;;;;11.10;68.93;102059.31;4943327;29;20459;-56
2023/06/04 04:19:33;;;;;;;1.85;1.00;;;;;;;11.10;69.19;102056.72;4943427;29;20027;-56
2023/06/04 04:21:58;;;;;;;2.65;1.10;;;;;;;11.06;69.24;102055.69;4939218;28;20070;-57
2023/06/04 04:24:24;;;;;;;2.10;1.10;;;;;;;11.07;69.90;102067.91;4943739;29;20143;-56
2023/06/04 04:26:53;;;;;;;1.77;1.10;;;;;;;11.06;69.48;102060.03;4942937;28;20035;-56
2023/06/04 04:29:27;;;;;;;2.65;1.13;;;;;;;11.07;70.01;102067.03;4940649;28;20023;-56
2023/06/04 04:31:56;;;;;;;3.50;1.40;;;;;;;11.07;69.71;102061.81;4944154;29;20042;-56
2023/06/04 04:34:22;;;;;;;1.85;1.27;;;;;;;11.08;69.47;102059.25;4942619;29;20031;-56
2023/06/04 04:36:52;;;;;;;2.40;1.30;;;;;;;11.12;69.87;102055.97;4940150;29;20099;-56
2023/06/04 04:39:19;;;;;;;2.10;1.10;;;;;;;11.13;69.24;102056.84;4939383;29;20494;-56
2023/06/04 04:41:44;;;;;;;2.13;1.10;;;;;;;11.14;70.02;102058.63;4941944;29;20044;-57
2023/06/04 04:44:09;;;;;;;3.00;1.40;;;;;;;11.15;70.15;102068.22;4942536;28;20042;-56
2023/06/04 04:46:35;;;;;;;1.95;1.20;;;;;;;11.16;70.01;102069.13;4943311;29;20106;-56
2023/06/04 04:49:00;;;;;;;1.70;1.10;;;;;;;11.14;69.72;102064.72;4942826;29;20042;-57
2023/06/04 04:51:25;;;;;;;1.80;1.20;;;;;;;11.14;69.86;102069.06;4923698;29;20107;-56
2023/06/04 04:53:51;;;;;;;1.92;1.10;;;;;;;11.18;70.20;102064.84;4945956;28;20071;-56
2023/06/04 04:56:16;;;;;;;1.92;1.00;;;;;;;11.18;70.65;102070.06;4943378;28;20457;-57
2023/06/04 04:58:42;;;;;;;2.80;1.30;;;;;;;11.18;70.80;102070.06;4944900;29;20158;-57
2023/06/04 05:01:07;;;;;;;2.28;1.20;;;;;;;11.14;70.44;102069.94;4927920;29;20036;-56
2023/06/04 05:03:32;;;;;;;2.45;1.25;;;;;;;11.16;71.08;102064.78;4944349;29;20467;-56
2023/06/04 05:05:58;;;;;;;2.25;1.30;;;;;;;11.16;70.76;102064.78;4928677;29;20472;-56
2023/06/04 05:08:23;;;;;;;2.00;1.20;;;;;;;11.16;71.40;102071.72;4944156;29;20038;-56
2023/06/04 05:10:50;;;;;;;3.03;1.50;;;;;;;11.20;67.96;102065.81;4944443;29;20035;-56
2023/06/04 05:13:16;;;;;;;1.98;1.10;;;;;;;11.17;68.68;102073.53;4945790;29;20438;-56
2023/06/04 05:15:42;;;;;;;2.50;1.23;;;;;;;11.20;66.42;102076.25;4943654;29;20031;-55
2023/06/04 05:18:08;;;;;;;2.03;1.10;;;;;;;11.26;68.61;102079.97;4945223;29;20227;-57
2023/06/04 05:20:35;;;;;;;2.38;1.20;;;;;;;11.33;68.63;102075.03;4946559;29;20027;-56
2023/06/04 05:23:00;;;;;;;2.63;1.30;;;;;;;11.39;71.11;102073.53;4944525;28;20681;-57
2023/06/04 05:25:26;;;;;;;2.53;1.20;;;;;;;11.39;70.04;102073.53;4943980;29;20271;-56
2023/06/04 05:27:52;;;;;;;2.33;1.17;;;;;;;11.41;70.91;102074.50;4942903;29;20039;-56
2023/06/04 05:30:17;;;;;;;2.22;1.05;;;;;;;11.45;68.25;102080.72;4945286;29;20034;-62
2023/06/04 05:32:43;;;;;;;2.75;1.10;;;;;;;11.50;68.54;102071.38;4944347;28;20460;-62
2023/06/04 05:35:08;;;;;;;2.22;1.10;;;;;;;11.57;69.63;102080.31;4945116;29;20557;-62
2023/06/04 05:37:35;;;;;;;2.15;1.17;;;;;;;11.62;70.15;102074.44;4944963;29;20031;-62
2023/06/04 05:40:00;;;;;;;2.10;1.02;;;;;;;11.66;68.63;102073.75;4944863;29;20043;-62
2023/06/04 05:42:25;;;;;;;1.95;1.10;;;;;;;11.70;66.17;102072.13;4944379;29;20483;-62
2023/06/04 05:44:51;;;;;;;1.70;1.05;;;;;;;11.78;68.16;102069.84;4945047;28;20134;-62
2023/06/04 05:47:18;;;;;;;2.90;1.33;;;;;;;11.84;69.89;102065.72;4945109;29;20027;-62
2023/06/04 05:49:43;;;;;;;1.88;1.15;;;;;;;11.95;69.77;102074.00;4946121;29;20125;-62
2023/06/04 05:52:09;;;;;;;2.53;1.02;;;;;;;12.01;67.64;102062.91;4943101;28;20043;-62
2023/06/04 05:54:36;;;;;;;1.73;1.00;;;;;;;12.06;65.75;102066.56;4943278;29;20039;-62
2023/06/04 05:57:02;;;;;;;1.50;1.00;;;;;;;12.13;63.16;102071.19;4927245;29;20030;-62
2023/06/04 05:59:27;;;;;;;2.05;1.20;;;;;;;12.25;69.28;102078.59;4940574;29;20023;-62
2023/06/04 06:01:53;;;;;;;2.35;1.30;;;;;;;12.37;68.62;102087.69;4945328;28;20020;-62
2023/06/04 06:04:18;;;;;;;2.75;1.25;;;;;;;12.45;69.27;102084.53;4945280;29;20032;-62
2023/06/04 06:06:43;;;;;;;1.98;1.20;;;;;;;12.57;66.77;102084.09;4946573;29;20190;-62
2023/06/04 06:09:12;;;;;;;2.85;1.25;;;;;;;12.65;65.83;102084.34;4928637;29;20035;-62
2023/06/04 06:11:37;;;;;;;1.77;1.10;;;;;;;12.74;66.59;102082.06;4945009;29;20107;-62
2023/06/04 06:14:03;;;;;;;2.15;1.30;;;;;;;12.82;65.65;102082.34;4946747;29;20510;-62
2023/06/04 06:16:28;;;;;;;2.00;1.30;;;;;;;12.93;66.80;102086.19;4945510;29;20069;-62
2023/06/04 06:18:53;;;;;;;2.15;1.30;;;;;;;13.07;66.52;102085.78;4946857;29;20038;-62
2023/06/04 06:21:19;;;;;;;2.33;1.40;;;;;;;13.16;67.89;102080.84;4945246;29;20498;-62
2023/06/04 06:23:44;;;;;;;2.58;1.10;;;;;;;13.25;66.62;102085.47;4946027;29;20042;-62
2023/06/04 06:26:10;;;;;;;2.10;1.10;;;;;;;13.34;66.84;102081.47;4945618;29;20035;-63
2023/06/04 06:28:36;;;;;;;2.35;1.30;;;;;;;13.49;65.11;102082.81;4929779;29;20494;-62
2023/06/04 06:31:02;;;;;;;2.13;1.10;;;;;;;13.60;64.55;102084.03;4929199;29;20095;-63
2023/06/04 06:33:27;;;;;;;1.75;1.02;;;;;;;13.69;64.29;102081.69;4942688;28;20230;-62
2023/06/04 06:35:52;;;;;;;2.05;1.15;;;;;;;13.83;62.21;102083.81;4944472;29;20645;-62
2023/06/04 06:38:18;;;;;;;2.45;1.30;;;;;;;13.99;63.33;102091.31;4944150;29;20030;-62
2023/06/04 06:40:43;;;;;;;1.55;1.00;;;;;;;14.09;62.04;102087.22;4942568;29;20066;-62
2023/06/04 06:43:10;;;;;;;1.73;1.08;;;;;;;14.19;61.56;102088.38;4943866;29;20091;-63
2023/06/04 06:45:35;;;;;;;3.22;1.35;;;;;;;14.33;62.24;102096.66;4942715;29;20510;-63
2023/06/04 06:48:01;;;;;;;2.15;1.30;;;;;;;14.42;62.96;102092.56;4941258;29;20055;-63
2023/06/04 06:50:26;;;;;;;1.55;1.10;;;;;;;14.56;61.65;102100.78;4942441;29;20027;-63
2023/06/04 06:52:51;;;;;;;1.80;1.10;;;;;;;14.67;60.78;102095.88;4941539;29;20426;-63
2023/06/04 06:55:16;;;;;;;1.90;1.10;;;;;;;14.81;61.50;102101.47;4942913;29;20035;-63
2023/06/04 06:57:42;;;;;;;2.22;1.30;;;;;;;14.92;60.38;102096.53;4942908;29;20680;-63
2023/06/04 07:00:09;;;;;;;2.10;1.30;;;;;;;14.99;60.61;102102.81;4943798;29;20036;-62
2023/06/04 07:02:34;;;;;;;2.17;1.30;;;;;;;15.11;59.25;102101.38;4943483;29;20695;-63
2023/06/04 07:04:59;;;;;;;1.55;1.10;;;;;;;15.29;60.82;102108.84;4926446;29;20255;-63
2023/06/04 07:07:25;;;;;;;2.00;1.08;;;;;;;15.37;60.17;102109.03;4942528;28;20039;-63
2023/06/04 07:09:50;;;;;;;2.60;1.20;;;;;;;15.52;59.51;102110.25;4941842;28;20028;-63
2023/06/04 07:12:16;;;;;;;2.38;1.30;;;;;;;15.68;59.83;102109.72;4942953;29;20468;-63
2023/06/04 07:14:42;;;;;;;2.63;1.10;;;;;;;15.77;56.63;102109.97;4941513;29;20570;-63
2023/06/04 07:17:07;;;;;;;3.08;1.50;;;;;;;15.87;58.15;102105.81;4943344;29;20474;-63
2023/06/04 07:19:33;;;;;;;2.08;1.10;;;;;;;15.91;58.82;102107.66;4941239;29;20384;-63
2023/06/04 07:21:58;;;;;;;1.52;1.10;;;;;;;16.06;58.69;102109.75;4942862;29;20047;-63
2023/06/04 07:24:23;;;;;;;1.75;1.20;;;;;;;16.19;57.55;102115.25;4944619;29;20055;-63
2023/06/04 07:26:48;;;;;;;2.40;1.55;;;;;;;16.33;56.76;102114.66;4942267;28;20609;-63
2023/06/04 07:29:14;;;;;;;3.25;1.40;;;;;;;16.43;53.49;102113.09;4941426;29;20023;-64
2023/06/04 07:31:41;;;;;;;2.63;1.30;;;;;;;16.52;54.50;102109.75;4942080;29;20031;-64
2023/06/04 07:34:06;;;;;;;2.33;1.40;;;;;;;16.61;52.82;102103.78;4942538;29;20083;-63
2023/06/04 07:36:32;;;;;;;2.15;1.20;;;;;;;16.63;54.47;102102.09;4939329;28;20142;-63
2023/06/04 07:38:58;;;;;;;2.03;1.20;;;;;;;16.84;54.36;102107.75;4938554;29;20020;-63
2023/06/04 07:41:23;;;;;;;2.03;1.23;;;;;;;17.03;56.54;102106.34;4939845;28;20050;-64
2023/06/04 07:43:48;;;;;;;2.00;1.10;;;;;;;17.16;53.17;102110.09;4937769;29;20508;-64
2023/06/04 07:46:18;;;;;;;2.10;1.30;;;;;;;17.23;51.45;102112.81;4944154;29;20039;-64
2023/06/04 07:48:43;;;;;;;1.92;1.13;;;;;;;17.45;54.18;102099.13;4938120;28;20107;-64
2023/06/04 07:51:09;;;;;;;2.10;1.40;;;;;;;17.55;52.81;102106.31;4939916;29;20023;-63
2023/06/04 07:53:35;;;;;;;1.85;1.20;;;;;;;17.73;51.54;102104.81;4927079;29;20106;-64
2023/06/04 07:56:01;;;;;;;2.20;1.10;;;;;;;17.97;51.66;102108.66;4945014;29;20039;-65
2023/06/04 07:58:26;;;;;;;1.77;1.10;;;;;;;17.96;50.11;102107.78;4941911;29;20066;-66
2023/06/04 08:00:51;;;;;;;1.95;1.10;;;;;;;18.09;50.31;102111.47;4943671;29;20031;-64
2023/06/04 08:03:18;;;;;;;2.70;1.27;;;;;;;18.37;50.58;102103.88;4923214;29;20023;-65
2023/06/04 08:05:43;;;;;;;2.60;1.30;;;;;;;18.56;49.94;102107.63;4940668;28;20042;-66
2023/06/04 08:08:09;;;;;;;1.80;1.10;;;;;;;18.70;50.34;102105.13;4941721;29;20034;-58
2023/06/04 08:10:34;;;;;;;3.20;1.35;;;;;;;18.79;47.65;102105.22;4941990;29;20075;-58
2023/06/04 08:12:59;;;;;;;2.15;1.08;;;;;;;18.74;46.17;102104.25;4936386;29;20507;-59
2023/06/04 08:15:25;;;;;;;1.70;1.15;;;;;;;18.70;45.89;102103.38;4939945;29;20420;-58
2023/06/04 08:17:50;;;;;;;1.48;1.00;;;;;;;18.97;48.14;102107.16;4940124;29;20031;-59
2023/06/04 08:20:15;;;;;;;2.67;1.10;;;;;;;19.00;45.20;102111.59;4937596;28;20031;-59
2023/06/04 08:22:41;;;;;;;3.05;1.20;;;;;;;19.20;43.41;102109.13;4940697;28;20030;-58
2023/06/04 08:25:08;;;;;;;2.38;1.10;;;;;;;19.27;44.49;102103.88;4944350;29;20547;-59
2023/06/04 08:27:34;;;;;;;2.47;1.10;;;;;;;19.46;46.82;102109.31;4943200;29;20038;-59
2023/06/04 08:30:00;;;;;;;1.50;0.80;;;;;;;19.61;45.44;102105.88;4943986;29;20038;-59
2023/06/04 08:32:25;;;;;;;1.52;0.90;;;;;;;19.72;44.58;102104.19;4942437;29;20494;-59
2023/06/04 08:34:50;;;;;;;1.33;1.00;;;;;;;19.82;41.97;102107.81;4939232;29;20454;-59
2023/06/04 08:37:17;;;;;;;3.17;0.98;;;;;;;19.95;42.85;102103.47;4945189;29;20479;-59
2023/06/04 08:39:42;;;;;;;1.67;0.90;;;;;;;20.06;43.17;102100.84;4934690;29;20043;-59
2023/06/04 08:42:15;;;;;;;2.25;0.80;;;;;;;20.25;42.57;102099.19;4941794;28;20063;-59
2023/06/04 08:44:42;;;;;;;2.58;1.00;;;;;;;20.47;42.16;102110.72;4937346;29;20497;-59
2023/06/04 08:47:08;;;;;;;1.27;0.82;;;;;;;20.66;41.39;102112.56;4938701;28;20090;-59
2023/06/04 08:49:38;;;;;;;2.40;1.00;;;;;;;20.90;42.32;102108.19;4940595;29;20452;-59
2023/06/04 08:52:05;;;;;;;1.65;0.80;;;;;;;21.18;41.49;102105.53;4942574;29;20452;-59
2023/06/04 08:54:32;;;;;;;1.77;0.82;;;;;;;21.44;41.47;102109.94;4941066;29;20035;-59
2023/06/04 08:56:58;;;;;;;1.83;0.85;;;;;;;21.20;34.19;102109.06;4940138;29;20055;-65
2023/06/04 08:59:23;;;;;;;1.50;0.70;;;;;;;21.31;40.00;102102.00;4941202;28;20106;-65
2023/06/04 09:01:53;;;;;;;2.83;0.98;;;;;;;21.54;38.05;102109.09;4940656;29;20028;-65
2023/06/04 09:04:18;;;;;;;1.45;0.80;;;;;;;21.63;36.36;102117.00;4940297;28;20030;-65
2023/06/04 09:06:44;;;;;;;0.80;0.70;;;;;;;21.94;38.99;102116.03;4937944;28;20034;-65
2023/06/04 09:09:12;;;;;;;2.22;0.80;;;;;;;22.11;35.03;102113.31;4942160;29;20028;-65
2023/06/04 09:11:52;;;;;;;1.42;0.80;;;;;;;22.23;35.29;102122.13;4941522;29;20082;-65
2023/06/04 09:14:17;;;;;;;1.38;0.80;;;;;;;22.00;36.40;102119.56;4944315;29;20038;-65
2023/06/04 09:16:47;;;;;;;1.75;0.80;;;;;;;22.06;34.04;102111.56;4941449;29;20395;-64
2023/06/04 09:19:12;;;;;;;1.33;0.70;;;;;;;22.06;32.44;102114.22;4942427;29;20031;-65
2023/06/04 09:21:46;;;;;;;1.23;0.77;;;;;;;22.23;36.35;102115.91;4943497;29;21039;-65
2023/06/04 09:24:11;;;;;;;1.02;0.60;;;;;;;22.08;28.72;102113.34;4942421;28;20054;-65
2023/06/04 09:26:37;;;;;;;1.30;0.75;;;;;;;21.95;31.91;102109.84;4939607;29;20111;-64
2023/06/04 09:29:05;;;;;;;2.45;0.70;;;;;;;21.98;34.91;102107.19;4934979;29;20031;-65
2023/06/04 09:31:36;;;;;;;1.38;0.77;;;;;;;21.97;30.03;102103.66;5009108;23;22018;-96
2023/06/04 09:34:03;;;;;;;2.00;0.70;;;;;;;22.18;31.73;102113.28;4968992;28;20069;-96
2023/06/04 09:36:34;;;;;;;1.63;0.70;;;;;;;22.29;30.49;102115.91;4970756;28;20038;-96
2023/06/04 09:39:04;;;;;;;1.65;0.68;;;;;;;22.33;30.74;102107.06;4975061;28;20026;-96
2023/06/04 09:41:33;;;;;;;1.25;0.80;;;;;;;22.38;29.46;102099.94;4970053;28;20022;-96
2023/06/04 09:44:06;;;;;;;2.50;0.70;;;;;;;22.59;32.67;102108.66;4971466;28;20031;-96
2023/06/04 09:47:04;;;;;;;1.40;0.60;;;;;;;22.86;31.47;102109.38;4991285;28;20082;-96
2023/06/04 09:49:42;;;;;;;1.15;0.60;;;;;;;23.02;35.17;102115.47;4982728;23;20157;-58
2023/06/04 09:52:08;;;;;;;1.08;0.65;;;;;;;23.22;34.53;102110.88;4980105;28;20525;-58
2023/06/04 09:54:37;;;;;;;2.08;0.80;;;;;;;23.30;30.97;102107.28;4980505;28;20057;-60
2023/06/04 09:57:25;;;;;;;1.67;0.70;;;;;;;23.37;33.60;102109.00;4981499;28;20030;-58
2023/06/04 09:59:52;;;;;;;0.80;0.50;;;;;;;23.30;29.07;102102.84;4980916;28;20401;-58
2023/06/04 10:02:21;;;;;;;1.02;0.60;;;;;;;23.19;29.73;102105.59;4982445;28;20034;-59
2023/06/04 10:04:52;;;;;;;;;;;;;;;23.34;32.98;102104.56;4980118;28;20485;-59
2023/06/04 10:07:18;;;;;;;1.50;0.60;;;;;;;23.70;34.88;102102.44;4982548;28;19956;-58
2023/06/04 10:09:46;;;;;;;1.15;0.63;;;;;;;23.79;29.03;102091.66;4981337;28;20168;-59
2023/06/04 10:12:16;;;;;;;1.75;0.70;;;;;;;24.08;33.93;102093.13;4979653;28;20035;-59
2023/06/04 10:14:49;;;;;;;2.75;0.65;;;;;;;24.31;33.37;102099.94;4980505;28;20049;-58
2023/06/04 10:17:17;;;;;;;1.02;0.60;;;;;;;24.40;33.93;102094.47;4981351;28;20555;-58
2023/06/04 10:19:43;;;;;;;0.80;0.65;;;;;;;24.57;33.39;102093.38;4980894;28;20023;-59
2023/06/04 10:22:11;;;;;;;1.55;0.70;;;;;;;24.78;33.03;102106.41;4979844;28;20018;-59
2023/06/04 10:24:37;;;;;;;1.17;0.60;;;;;;;24.76;31.94;102105.50;4979357;28;20034;-59
2023/06/04 10:27:10;;;;;;;0.77;0.60;;;;;;;24.66;31.61;102098.56;4979671;28;20033;-59
2023/06/04 10:29:35;;;;;;;1.95;0.60;;;;;;;24.31;28.41;102105.25;4978930;28;20061;-58
2023/06/04 10:34:36;;;;;;;1.17;0.60;;;;;;;24.15;29.77;102101.06;5406512;23;21203;-59
2023/06/04 10:37:02;;;;;;;1.13;0.50;;;;;;;24.45;31.53;102102.41;5095941;23;20063;-59
2023/06/04 10:39:32;;;;;;;1.13;0.63;;;;;;;24.51;26.17;102099.66;4956007;28;20124;-59
2023/06/04 10:41:59;;;;;;;1.00;0.60;;;;;;;24.34;26.74;102104.34;4955868;28;20232;-59
2023/06/04 10:44:24;;;;;;;2.13;0.80;;;;;;;23.98;28.73;102095.94;4957178;28;20102;-59
2023/06/04 10:46:50;;;;;;;1.30;0.70;;;;;;;24.11;32.14;102101.09;4956740;28;20043;-59
2023/06/04 10:49:26;;;;;;;0.90;0.60;;;;;;;24.44;32.24;102098.84;4956073;28;20023;-59
2023/06/04 10:51:51;;;;;;;1.60;0.70;;;;;;;24.67;31.55;102089.69;4957333;28;20101;-59
2023/06/04 10:54:24;;;;;;;2.05;0.68;;;;;;;24.84;31.21;102102.75;4957220;28;20623;-58
2023/06/04 10:56:49;;;;;;;1.55;0.70;;;;;;;24.97;32.42;102106.09;4956594;28;20479;-59
2023/06/04 10:59:16;;;;;;;1.17;0.70;;;;;;;25.09;29.91;102105.88;4957857;28;20026;-59
2023/06/04 11:01:42;;;;;;;1.40;0.68;;;;;;;25.33;32.80;102098.38;4955477;28;20027;-59
2023/06/04 11:04:26;;;;;;;0.98;0.70;;;;;;;25.21;28.14;102101.25;4954390;28;20019;-59
2023/06/04 11:07:08;;;;;;;1.35;0.60;;;;;;;24.92;28.49;102098.16;4956175;28;20125;-59
2023/06/04 11:09:52;;;;;;;1.85;0.68;;;;;;;24.97;29.96;102106.09;4955985;28;20031;-59
2023/06/04 11:12:17;;;;;;;1.17;0.60;;;;;;;25.20;32.43;102103.03;4953004;28;20027;-59
2023/06/04 11:14:59;;;;;;;0.65;0.50;;;;;;;25.28;30.68;102082.44;4954239;28;20027;-59
2023/06/04 11:17:24;;;;;;;1.10;0.82;;;;;;;25.48;30.22;102082.09;4956809;28;20026;-64
2023/06/04 11:19:50;;;;;;;1.10;0.70;;;;;;;25.48;30.10;102081.22;4939126;28;20030;-65
2023/06/04 11:22:15;;;;;;;1.27;0.60;;;;;;;25.46;28.89;102081.25;4956008;28;20058;-64
2023/06/04 11:24:40;;;;;;;1.15;0.60;;;;;;;25.52;28.93;102090.94;4956392;28;20034;-64
2023/06/04 11:27:06;;;;;;;1.27;0.80;;;;;;;25.18;26.59;102094.16;4955968;28;20022;-64
2023/06/04 11:29:32;;;;;;;1.58;0.57;;;;;;;25.45;28.65;102087.50;4956344;28;20035;-64